KREO/REO METAR and TAF weather

Enter ICAO airport designator
Station Type Date Time Source
KREO METAR 2022/11/30 10:52 UTC NOAA

KREO 301052Z AUTO 04004KT M03/M05 A2983 RMK AO1 SLP126 T10281050


Station Type Date Time Source
KREO Decoded METAR 2022/11/30 10:52 UTC NOAA

ROME, OR, United States (KREO) 42-35N 117-52W 1235M
Nov 30, 2022 - 05:52 AM EST / 2022.11.30 1052 UTC
Wind: from the NE (040 degrees) at 5 MPH (4 KT):0
Temperature: 27.0 F (-2.8 C)
Windchill: 21 F (-6 C):1
Dew Point: 23.0 F (-5.0 C)
Relative Humidity: 84%
Pressure (altimeter): 29.83 in. Hg (1010 hPa)
ob: KREO 301052Z AUTO 04004KT M03/M05 A2983 RMK AO1 SLP126 T10281050
cycle: 11

Station Type Date Time Source
KREO TAF UTC NOAA

Error!

Example: see airport list